Time;durP1;ratioP1;P1;durP2;ratioP2;P2;SDS_P1;SDS_P2;PMS_P1;PMS_P2;Temp;Humidity;BMP_temperature;BMP_pressure;BME280_temperature;BME280_humidity;BME280_pressure;Samples;Min_cycle;Max_cycle;Signal;HPM_P1;HPM_P2
2022/11/25 00:00:53;;;;;;;33.60;14.43;;;4.20;99.90;;;;;;5036681;28;20850;-60
2022/11/25 00:03:20;;;;;;;26.07;13.80;;;4.30;99.90;;;;;;5046352;28;20476;-60
2022/11/25 00:05:47;;;;;;;35.77;16.40;;;4.30;99.90;;;;;;5045129;28;20511;-60
2022/11/25 00:08:13;;;;;;;35.57;9.97;;;4.30;99.90;;;;;;5041894;28;20472;-60
2022/11/25 00:10:40;;;;;;;33.63;13.63;;;4.30;99.90;;;;;;5039374;28;20476;-60
2022/11/25 00:13:08;;;;;;;20.33;9.87;;;4.30;99.90;;;;;;5051245;28;20491;-59
2022/11/25 00:15:35;;;;;;;37.23;12.23;;;4.90;99.90;;;;;;5044047;28;20484;-60
2022/11/25 00:18:02;;;;;;;27.03;11.53;;;4.20;99.90;;;;;;5052517;28;21029;-60
2022/11/25 00:20:28;;;;;;;33.73;11.97;;;4.20;99.90;;;;;;5046419;28;20490;-61
2022/11/25 00:22:55;;;;;;;26.20;9.10;;;4.20;99.90;;;;;;5044705;28;20499;-60
2022/11/25 00:25:22;;;;;;;24.10;9.90;;;4.20;99.90;;;;;;5049678;28;20479;-61
2022/11/25 00:27:52;;;;;;;35.73;13.47;;;4.10;99.90;;;;;;5047847;28;20478;-60
2022/11/25 00:30:20;;;;;;;22.37;8.73;;;4.10;99.90;;;;;;5047445;28;20467;-61
2022/11/25 00:32:47;;;;;;;31.40;12.93;;;4.00;99.90;;;;;;5033203;28;20488;-60
2022/11/25 00:35:14;;;;;;;19.70;9.13;;;3.90;99.90;;;;;;5050815;28;20490;-60
2022/11/25 00:37:40;;;;;;;37.37;14.10;;;3.70;99.90;;;;;;5044458;28;20482;-60
2022/11/25 00:40:11;;;;;;;27.93;12.00;;;2.90;99.90;;;;;;5046719;28;20498;-60
2022/11/25 00:45:24;;;;;;;22.27;9.93;;;3.50;99.90;;;;;;5049165;28;20491;-60
2022/11/25 00:47:53;;;;;;;36.00;14.53;;;3.50;99.90;;;;;;5049441;28;20482;-60
2022/11/25 00:50:20;;;;;;;30.43;11.50;;;3.50;99.90;;;;;;5050372;28;20471;-60
2022/11/25 00:52:46;;;;;;;43.50;16.13;;;3.60;99.90;;;;;;5048385;28;20488;-60
2022/11/25 00:55:13;;;;;;;20.40;8.90;;;;;;;;;;5050595;28;20483;-61
2022/11/25 00:57:40;;;;;;;28.63;11.53;;;3.80;99.90;;;;;;5044359;28;20479;-61
2022/11/25 01:00:09;;;;;;;31.77;11.33;;;3.90;99.90;;;;;;5045329;28;20478;-60
2022/11/25 01:02:38;;;;;;;31.47;11.77;;;4.00;99.90;;;;;;5061291;28;20487;-60
2022/11/25 01:05:05;;;;;;;21.77;9.23;;;4.10;99.90;;;;;;5050669;28;20475;-59
2022/11/25 01:07:32;;;;;;;29.00;9.90;;;4.10;99.90;;;;;;5043699;28;20478;-60
2022/11/25 01:09:59;;;;;;;34.30;11.80;;;4.10;99.90;;;;;;5056685;28;20471;-60
2022/11/25 01:12:25;;;;;;;24.30;10.00;;;4.10;99.90;;;;;;5047836;28;20813;-61
2022/11/25 01:14:52;;;;;;;32.23;12.13;;;4.20;99.90;;;;;;5037836;28;20911;-60
2022/11/25 01:17:19;;;;;;;26.13;8.63;;;4.20;99.90;;;;;;5029873;28;20977;-61
2022/11/25 01:19:47;;;;;;;48.70;15.83;;;4.20;99.90;;;;;;5034172;28;20475;-60
2022/11/25 01:22:14;;;;;;;19.30;9.60;;;4.20;99.90;;;;;;5034099;28;20824;-59
2022/11/25 01:24:41;;;;;;;26.33;11.33;;;4.20;99.90;;;;;;5044165;28;20476;-60
2022/11/25 01:27:07;;;;;;;25.70;9.87;;;4.10;99.90;;;;;;5036196;28;20530;-60
2022/11/25 01:29:34;;;;;;;23.17;10.60;;;4.10;99.90;;;;;;5037740;28;20483;-59
2022/11/25 01:32:01;;;;;;;31.07;11.47;;;4.20;99.90;;;;;;5040455;28;20500;-59
2022/11/25 01:34:30;;;;;;;24.47;10.67;;;4.20;99.90;;;;;;5040645;28;20831;-60
2022/11/25 01:36:58;;;;;;;31.07;11.40;;;4.20;99.90;;;;;;5039321;28;20479;-59
2022/11/25 01:39:26;;;;;;;32.60;11.17;;;4.30;99.90;;;;;;5041570;28;20484;-60
2022/11/25 01:41:52;;;;;;;35.23;13.90;;;4.30;99.90;;;;;;5033233;28;21020;-60
2022/11/25 01:44:20;;;;;;;24.47;10.60;;;4.40;99.90;;;;;;5037791;28;20480;-60
2022/11/25 01:46:58;;;;;;;39.23;15.00;;;4.40;99.90;;;;;;5026688;28;20481;-59
2022/11/25 01:49:31;;;;;;;26.17;9.40;;;4.50;99.90;;;;;;5008150;28;20966;-60
2022/11/25 01:52:05;;;;;;;19.30;9.73;;;4.40;99.90;;;;;;5031261;28;20483;-61
2022/11/25 01:54:37;;;;;;;22.40;9.23;;;4.30;99.90;;;;;;5037354;28;20484;-60
2022/11/25 01:57:09;;;;;;;19.93;8.83;;;4.10;99.90;;;;;;5034145;28;20541;-60
2022/11/25 01:59:42;;;;;;;29.33;12.40;;;4.00;99.90;;;;;;5036237;28;21355;-60
2022/11/25 02:02:09;;;;;;;18.03;9.07;;;3.90;99.90;;;;;;5031617;28;20955;-60
2022/11/25 02:04:40;;;;;;;20.27;10.40;;;4.00;99.90;;;;;;5032302;28;20811;-60
2022/11/25 02:07:13;;;;;;;22.60;10.30;;;4.10;99.90;;;;;;5030972;28;20488;-60
2022/11/25 02:09:43;;;;;;;22.73;10.13;;;4.10;99.90;;;;;;5037497;28;20883;-60
2022/11/25 02:12:11;;;;;;;24.33;8.90;;;4.20;99.90;;;;;;5038289;28;21055;-59
2022/11/25 02:14:39;;;;;;;18.33;9.33;;;4.30;99.90;;;;;;5036207;28;20489;-60
2022/11/25 02:17:06;;;;;;;35.37;9.77;;;;;;;;;;5038884;28;20906;-60
2022/11/25 02:19:44;;;;;;;33.33;9.30;;;4.40;99.90;;;;;;5034139;28;20471;-61
2022/11/25 02:22:18;;;;;;;21.87;10.40;;;;;;;;;;5024808;28;20472;-60
2022/11/25 02:24:48;;;;;;;38.90;14.90;;;4.60;99.90;;;;;;5034962;28;20484;-60
2022/11/25 02:27:17;;;;;;;21.97;9.37;;;6.30;99.90;;;;;;5032206;28;20562;-60
2022/11/25 02:29:45;;;;;;;36.97;14.47;;;4.70;99.90;;;;;;5043541;28;20479;-59
2022/11/25 02:32:11;;;;;;;18.13;9.80;;;4.60;99.90;;;;;;5033714;28;20484;-59
2022/11/25 02:34:46;;;;;;;27.40;12.37;;;4.60;99.90;;;;;;5037180;28;20511;-60
2022/11/25 02:37:13;;;;;;;26.07;9.57;;;4.70;99.90;;;;;;5022672;28;20972;-60
2022/11/25 02:39:40;;;;;;;22.50;10.77;;;4.70;99.90;;;;;;5036259;28;20479;-60
2022/11/25 02:42:08;;;;;;;19.33;9.73;;;4.70;99.90;;;;;;5037750;28;21039;-61
2022/11/25 02:44:36;;;;;;;38.13;9.57;;;4.80;99.90;;;;;;5037020;28;20499;-61
2022/11/25 02:47:03;;;;;;;26.87;12.33;;;4.80;99.90;;;;;;5035841;28;20495;-61
2022/11/25 02:49:30;;;;;;;26.33;10.27;;;4.70;99.90;;;;;;5033039;28;20593;-61
2022/11/25 02:51:56;;;;;;;24.87;9.83;;;4.70;99.90;;;;;;5038511;28;20484;-61
2022/11/25 02:54:23;;;;;;;26.63;8.73;;;4.70;99.90;;;;;;5025028;28;20844;-60
2022/11/25 02:56:50;;;;;;;27.87;11.67;;;4.80;99.90;;;;;;5034002;28;20506;-61
2022/11/25 02:59:16;;;;;;;44.60;10.53;;;7.00;99.90;;;;;;5035158;28;20483;-60
2022/11/25 03:01:44;;;;;;;48.53;15.97;;;4.90;99.90;;;;;;5034089;28;20485;-61
2022/11/25 03:04:11;;;;;;;35.00;10.53;;;4.90;99.90;;;;;;5036689;28;20476;-61
2022/11/25 03:06:38;;;;;;;34.50;9.60;;;4.90;99.90;;;;;;5043047;28;20847;-61
2022/11/25 03:09:05;;;;;;;30.17;10.77;;;5.00;99.90;;;;;;5037764;28;20482;-60
2022/11/25 03:14:28;;;;;;;27.70;7.97;;;4.90;99.90;;;;;;4995224;28;20848;-60
2022/11/25 03:16:56;;;;;;;41.27;9.77;;;4.90;99.90;;;;;;5024689;28;20476;-60
2022/11/25 03:19:23;;;;;;;33.57;8.03;;;;;;;;;;5035826;28;20472;-60
2022/11/25 03:21:50;;;;;;;38.57;12.40;;;5.10;99.90;;;;;;5033510;28;20838;-60
2022/11/25 03:24:16;;;;;;;20.63;8.23;;;5.00;99.90;;;;;;5036491;28;20489;-60
2022/11/25 03:26:43;;;;;;;43.30;12.53;;;5.10;99.90;;;;;;5037454;28;20491;-60
2022/11/25 03:29:10;;;;;;;32.87;8.60;;;;;;;;;;5035918;28;20495;-60
2022/11/25 03:31:37;;;;;;;43.10;13.20;;;;;;;;;;5035022;28;20473;-60
2022/11/25 03:34:06;;;;;;;31.43;9.17;;;;;;;;;;5035402;28;20926;-60
2022/11/25 03:36:32;;;;;;;37.57;10.07;;;5.10;99.90;;;;;;5027263;28;20476;-61
2022/11/25 03:38:59;;;;;;;33.87;10.23;;;;;;;;;;5036275;28;20483;-60
2022/11/25 03:41:26;;;;;;;35.03;11.63;;;5.10;99.90;;;;;;5037268;28;20473;-60
2022/11/25 03:43:53;;;;;;;36.70;12.27;;;5.10;99.90;;;;;;5032610;28;20496;-60
2022/11/25 03:46:20;;;;;;;16.90;8.20;;;5.10;99.90;;;;;;5028811;28;20480;-59
2022/11/25 03:48:46;;;;;;;38.93;14.63;;;5.10;99.90;;;;;;5036836;28;20491;-60
2022/11/25 03:51:14;;;;;;;17.50;9.50;;;5.20;99.90;;;;;;5024557;28;20857;-60
2022/11/25 03:53:41;;;;;;;31.43;12.30;;;5.20;99.90;;;;;;5040771;28;20868;-61
2022/11/25 03:56:08;;;;;;;26.07;9.47;;;5.00;99.90;;;;;;5041385;28;20480;-60
2022/11/25 03:58:35;;;;;;;21.10;9.53;;;4.90;99.90;;;;;;5035872;28;20559;-60
2022/11/25 04:01:03;;;;;;;31.63;11.37;;;4.70;99.90;;;;;;5035217;28;20854;-63
2022/11/25 04:03:30;;;;;;;15.83;8.17;;;4.80;99.90;;;;;;5036355;28;20487;-60
2022/11/25 04:05:57;;;;;;;18.07;8.47;;;4.60;99.90;;;;;;5033267;28;20480;-61
2022/11/25 04:08:26;;;;;;;23.80;10.63;;;;;;;;;;5040091;28;21032;-60
2022/11/25 04:10:53;;;;;;;31.77;12.70;;;4.40;99.90;;;;;;5036752;28;20496;-61
2022/11/25 04:13:19;;;;;;;20.13;7.17;;;4.20;99.90;;;;;;5045387;28;20483;-60
2022/11/25 04:15:46;;;;;;;42.90;13.63;;;;;;;;;;5031103;28;20480;-60
2022/11/25 04:18:13;;;;;;;20.87;8.53;;;4.50;99.90;;;;;;5039820;28;20248;-60
2022/11/25 04:20:40;;;;;;;23.10;9.87;;;4.60;99.90;;;;;;5041931;28;20491;-60
2022/11/25 04:23:07;;;;;;;21.27;9.13;;;;;;;;;;5038113;28;20479;-60
2022/11/25 04:25:36;;;;;;;32.87;12.30;;;4.90;99.90;;;;;;5045586;28;20549;-60
2022/11/25 04:28:05;;;;;;;26.73;10.77;;;4.90;99.90;;;;;;5039078;28;20475;-60
2022/11/25 04:30:32;;;;;;;26.80;9.40;;;5.10;99.90;;;;;;5043649;28;20740;-60
2022/11/25 04:32:59;;;;;;;19.93;9.30;;;5.10;99.90;;;;;;5040552;28;20868;-60
2022/11/25 04:35:25;;;;;;;23.37;9.40;;;5.20;99.90;;;;;;5037790;28;20483;-60
2022/11/25 04:37:52;;;;;;;46.53;13.03;;;5.20;99.90;;;;;;5038513;28;20472;-60
2022/11/25 04:40:19;;;;;;;16.77;9.00;;;5.30;99.90;;;;;;5039095;28;20480;-60
2022/11/25 04:42:47;;;;;;;32.23;12.87;;;5.40;99.90;;;;;;5038828;28;20479;-61
2022/11/25 04:45:16;;;;;;;21.53;8.50;;;5.50;99.90;;;;;;5035034;28;20475;-60
2022/11/25 04:47:44;;;;;;;32.07;12.17;;;5.50;99.90;;;;;;5044454;28;21338;-60
2022/11/25 04:50:15;;;;;;;15.53;7.77;;;5.50;99.90;;;;;;5037911;28;20491;-60
2022/11/25 04:52:42;;;;;;;20.53;8.77;;;5.50;99.90;;;;;;5028097;28;20508;-60
2022/11/25 04:55:10;;;;;;;22.70;9.33;;;5.50;99.90;;;;;;5041311;28;21037;-61
2022/11/25 04:57:37;;;;;;;20.63;9.37;;;5.40;99.90;;;;;;5037871;28;20456;-60
2022/11/25 05:00:06;;;;;;;27.27;10.37;;;5.40;99.90;;;;;;5038501;28;20961;-60
2022/11/25 05:02:33;;;;;;;23.03;9.00;;;5.50;99.90;;;;;;5035662;28;20488;-60
2022/11/25 05:04:59;;;;;;;29.57;11.67;;;5.50;99.90;;;;;;5036851;28;21015;-60
2022/11/25 05:07:27;;;;;;;25.10;12.80;;;5.50;99.90;;;;;;5037219;28;20479;-61
2022/11/25 05:09:54;;;;;;;34.13;12.80;;;5.60;99.90;;;;;;5024803;28;20976;-60
2022/11/25 05:12:23;;;;;;;18.90;9.60;;;5.60;99.90;;;;;;5049280;28;20488;-60
2022/11/25 05:14:50;;;;;;;34.00;10.80;;;5.60;99.90;;;;;;5039507;28;20518;-61
2022/11/25 05:17:20;;;;;;;22.03;9.40;;;5.70;99.90;;;;;;5039688;28;20488;-61
2022/11/25 05:19:47;;;;;;;29.40;13.20;;;5.80;99.90;;;;;;5029724;28;20484;-60
2022/11/25 05:22:15;;;;;;;22.30;8.47;;;;;;;;;;5029617;28;20490;-60
2022/11/25 05:24:42;;;;;;;35.67;13.63;;;5.50;99.90;;;;;;5040150;28;20473;-61
2022/11/25 05:27:10;;;;;;;19.83;8.70;;;;;;;;;;5029133;28;20846;-60
2022/11/25 05:29:37;;;;;;;26.77;10.23;;;5.30;99.90;;;;;;5052100;28;20503;-60
2022/11/25 05:32:05;;;;;;;22.83;9.63;;;5.40;99.90;;;;;;5038752;28;20484;-60
2022/11/25 05:34:33;;;;;;;19.97;8.37;;;5.40;99.90;;;;;;5036785;28;20480;-61
2022/11/25 05:36:59;;;;;;;26.37;10.53;;;5.50;99.90;;;;;;5039120;28;20489;-61
2022/11/25 05:39:26;;;;;;;27.27;9.50;;;5.60;99.90;;;;;;5039249;28;20896;-61
2022/11/25 05:41:53;;;;;;;36.43;11.13;;;5.60;99.90;;;;;;5038843;28;20498;-61
2022/11/25 05:44:19;;;;;;;15.03;6.43;;;5.70;99.90;;;;;;5046344;28;20523;-60
2022/11/25 05:46:47;;;;;;;33.30;11.27;;;5.70;99.90;;;;;;5037810;28;20496;-61
2022/11/25 05:49:15;;;;;;;14.73;7.40;;;5.90;99.90;;;;;;5037571;28;21038;-61
2022/11/25 05:51:43;;;;;;;36.53;12.40;;;5.90;99.90;;;;;;5039501;28;20484;-61
2022/11/25 05:54:10;;;;;;;18.23;7.50;;;6.00;99.90;;;;;;5036613;28;20495;-60
2022/11/25 05:56:36;;;;;;;19.80;7.50;;;6.00;99.90;;;;;;5036261;28;20488;-61
2022/11/25 05:59:04;;;;;;;20.90;8.20;;;6.10;99.90;;;;;;5039824;28;20479;-61
2022/11/25 06:01:31;;;;;;;21.33;9.47;;;6.10;99.90;;;;;;5037988;28;20488;-60
2022/11/25 06:03:59;;;;;;;19.30;6.87;;;6.20;99.90;;;;;;5031189;28;20529;-61
2022/11/25 06:06:26;;;;;;;20.13;7.90;;;6.30;99.90;;;;;;5036669;28;21279;-60
2022/11/25 06:08:55;;;;;;;24.43;9.03;;;6.30;99.90;;;;;;5037055;28;21027;-61
2022/11/25 06:11:22;;;;;;;14.37;6.87;;;6.40;99.90;;;;;;5028441;28;20479;-61
2022/11/25 06:13:48;;;;;;;28.23;10.03;;;6.40;99.90;;;;;;5049917;28;20468;-61
2022/11/25 06:16:19;;;;;;;16.37;7.33;;;6.50;99.90;;;;;;5025676;28;20492;-60
2022/11/25 06:18:46;;;;;;;22.90;8.83;;;6.60;99.90;;;;;;5048890;28;20531;-61
2022/11/25 06:21:14;;;;;;;17.33;7.13;;;6.50;99.90;;;;;;5043169;28;20636;-61
2022/11/25 06:23:40;;;;;;;36.20;10.90;;;6.50;99.90;;;;;;5039740;28;20476;-61
2022/11/25 06:26:12;;;;;;;34.37;9.57;;;6.60;99.90;;;;;;5037606;28;21007;-61
2022/11/25 06:28:39;;;;;;;24.40;10.17;;;6.70;99.90;;;;;;5032133;28;20542;-60
2022/11/25 06:31:07;;;;;;;25.60;8.33;;;6.70;99.90;;;;;;5044089;28;21171;-61
2022/11/25 06:33:34;;;;;;;22.13;6.80;;;6.80;99.90;;;;;;5039246;28;20991;-62
2022/11/25 06:36:03;;;;;;;16.03;7.10;;;6.80;99.90;;;;;;5037831;28;20487;-62
2022/11/25 06:38:30;;;;;;;12.37;5.03;;;6.90;99.90;;;;;;5024589;28;20603;-61
2022/11/25 06:41:00;;;;;;;25.40;7.57;;;6.90;99.90;;;;;;5037214;28;20824;-62
2022/11/25 06:43:28;;;;;;;17.37;7.57;;;6.90;99.90;;;;;;5026634;28;21718;-61
2022/11/25 06:45:55;;;;;;;22.30;7.40;;;;;;;;;;5029872;28;21058;-61
2022/11/25 06:48:22;;;;;;;14.53;6.47;;;7.00;99.90;;;;;;5038909;28;20475;-61
2022/11/25 06:50:56;;;;;;;24.47;8.70;;;7.00;99.90;;;;;;5039209;28;20960;-61
2022/11/25 06:53:23;;;;;;;35.20;6.70;;;7.10;99.90;;;;;;5043988;28;20983;-61
2022/11/25 06:55:50;;;;;;;41.70;10.87;;;7.20;99.90;;;;;;5035160;28;20491;-61
2022/11/25 06:58:16;;;;;;;25.77;6.80;;;7.30;99.90;;;;;;5030284;28;20564;-61
2022/11/25 07:00:45;;;;;;;36.53;7.20;;;7.40;99.90;;;;;;5049558;28;20480;-61
2022/11/25 07:03:11;;;;;;;20.40;5.60;;;7.60;99.90;;;;;;5038037;28;21007;-61
2022/11/25 07:05:38;;;;;;;32.17;10.13;;;;;;;;;;5031592;28;20496;-62
2022/11/25 07:08:05;;;;;;;33.83;7.30;;;;;;;;;;5038536;28;20499;-61
2022/11/25 07:10:34;;;;;;;22.37;6.27;;;7.70;99.90;;;;;;5036797;28;20511;-61
2022/11/25 07:13:01;;;;;;;30.17;7.80;;;;;;;;;;5042169;28;20484;-61
2022/11/25 07:15:28;;;;;;;28.27;8.23;;;;;;;;;;5030054;28;20599;-62
2022/11/25 07:17:56;;;;;;;49.63;9.13;;;7.90;99.90;;;;;;5031798;28;20483;-61
2022/11/25 07:20:26;;;;;;;30.53;8.03;;;8.00;99.90;;;;;;5036696;28;20569;-61
2022/11/25 07:22:53;;;;;;;32.93;8.50;;;10.30;99.90;;;;;;5037053;28;20511;-61
2022/11/25 07:25:20;;;;;;;30.73;8.70;;;;;;;;;;5036580;28;20488;-61
2022/11/25 07:27:47;;;;;;;46.00;13.30;;;8.20;99.90;;;;;;5031104;28;20498;-61
2022/11/25 07:30:14;;;;;;;40.70;7.47;;;8.20;99.90;;;;;;5038836;28;21023;-61
2022/11/25 07:32:40;;;;;;;43.03;9.60;;;8.30;99.90;;;;;;5033390;28;20887;-61
2022/11/25 07:35:09;;;;;;;32.33;8.50;;;8.40;99.90;;;;;;5035793;28;20848;-61
2022/11/25 07:37:36;;;;;;;43.87;8.77;;;;;;;;;;5029589;28;20484;-61
2022/11/25 07:40:03;;;;;;;23.33;5.53;;;;;;;;;;5035094;28;21006;-61
2022/11/25 07:42:30;;;;;;;34.40;7.57;;;;;;;;;;5030098;28;20592;-61
2022/11/25 07:44:57;;;;;;;26.17;6.10;;;8.40;99.90;;;;;;5037734;28;20482;-61
2022/11/25 07:47:24;;;;;;;18.40;5.17;;;8.50;99.90;;;;;;5032620;28;20495;-61
2022/11/25 07:49:51;;;;;;;35.23;10.73;;;8.60;99.90;;;;;;5035076;28;20495;-60
2022/11/25 07:52:19;;;;;;;36.00;8.17;;;8.60;99.90;;;;;;5033655;28;20623;-61
2022/11/25 07:54:46;;;;;;;43.37;11.80;;;8.60;99.90;;;;;;5035604;28;20564;-61
2022/11/25 07:57:13;;;;;;;28.50;6.47;;;;;;;;;;5028342;28;20496;-61
2022/11/25 07:59:40;;;;;;;38.77;11.00;;;8.70;99.90;;;;;;5035869;28;20479;-62
2022/11/25 08:02:09;;;;;;;37.63;9.30;;;;;;;;;;5033319;28;20484;-61
2022/11/25 08:04:37;;;;;;;32.03;8.20;;;8.80;99.90;;;;;;5035211;28;20475;-61
2022/11/25 08:07:03;;;;;;;32.97;7.20;;;8.90;99.90;;;;;;5039033;28;21174;-61
2022/11/25 08:09:31;;;;;;;24.60;7.40;;;8.80;99.90;;;;;;5037452;28;20479;-62
2022/11/25 08:11:58;;;;;;;35.77;8.37;;;8.90;99.90;;;;;;5031481;28;20970;-61
2022/11/25 08:14:25;;;;;;;28.67;7.00;;;9.00;99.90;;;;;;5036301;28;20495;-60
2022/11/25 08:16:52;;;;;;;32.77;10.30;;;9.10;99.90;;;;;;5037120;28;20568;-61
2022/11/25 08:19:19;;;;;;;30.43;7.77;;;9.00;99.90;;;;;;5035009;28;20515;-62
2022/11/25 08:21:47;;;;;;;29.67;9.90;;;9.00;99.90;;;;;;5035466;28;20881;-61
2022/11/25 08:24:16;;;;;;;28.57;7.17;;;9.10;99.90;;;;;;5034577;28;20538;-61
2022/11/25 08:26:45;;;;;;;39.63;12.50;;;;;;;;;;5001635;28;20475;-61
2022/11/25 08:29:14;;;;;;;33.80;10.23;;;;;;;;;;5018075;28;21106;-61
2022/11/25 08:31:44;;;;;;;37.40;10.93;;;9.10;99.90;;;;;;5029315;28;21062;-62
2022/11/25 08:34:17;;;;;;;42.17;8.63;;;9.20;99.90;;;;;;5026356;28;20484;-62
2022/11/25 08:36:44;;;;;;;44.07;13.83;;;9.20;99.90;;;;;;5031023;28;20815;-62
2022/11/25 08:39:11;;;;;;;25.83;7.73;;;9.30;99.90;;;;;;5037377;28;20495;-61
2022/11/25 08:41:38;;;;;;;34.17;7.87;;;;;;;;;;5039401;28;20594;-61
2022/11/25 08:44:09;;;;;;;34.30;8.97;;;9.50;99.90;;;;;;5044905;28;20987;-62
2022/11/25 08:46:38;;;;;;;37.93;10.30;;;9.40;99.90;;;;;;5043332;28;20517;-62
2022/11/25 08:49:06;;;;;;;43.53;9.93;;;9.50;99.90;;;;;;5044157;28;21196;-61
2022/11/25 08:51:35;;;;;;;34.93;8.70;;;9.50;99.90;;;;;;5045337;28;20512;-61
2022/11/25 08:54:03;;;;;;;43.97;11.53;;;9.50;99.90;;;;;;5052507;28;20482;-61
2022/11/25 08:56:30;;;;;;;24.43;7.30;;;;;;;;;;5049890;28;20480;-61
2022/11/25 08:58:58;;;;;;;35.97;9.70;;;9.50;99.90;;;;;;5050804;28;20485;-61
2022/11/25 09:01:27;;;;;;;52.57;10.03;;;9.50;99.90;;;;;;5047943;28;20700;-62
2022/11/25 09:03:56;;;;;;;54.90;15.43;;;9.50;99.90;;;;;;5049541;28;20710;-61
2022/11/25 09:06:23;;;;;;;34.00;11.10;;;9.50;99.90;;;;;;5046095;28;20472;-62
2022/11/25 09:08:51;;;;;;;44.07;10.23;;;9.50;99.90;;;;;;5050452;28;21229;-61
2022/11/25 09:11:17;;;;;;;35.80;11.13;;;9.50;99.90;;;;;;5053011;28;21045;-61
2022/11/25 09:13:44;;;;;;;64.77;15.00;;;9.50;99.90;;;;;;5051493;28;20472;-61
2022/11/25 09:16:11;;;;;;;37.43;9.77;;;;;;;;;;5033653;28;20482;-61
2022/11/25 09:18:39;;;;;;;51.80;11.77;;;9.60;99.90;;;;;;5064216;28;20463;-61
2022/11/25 09:21:10;;;;;;;53.10;12.73;;;9.60;99.90;;;;;;5046098;28;20475;-61
2022/11/25 09:23:37;;;;;;;41.13;10.50;;;9.70;99.90;;;;;;5049018;28;20483;-61
2022/11/25 09:26:05;;;;;;;31.60;9.13;;;9.80;99.90;;;;;;5048164;28;20478;-61
2022/11/25 09:28:33;;;;;;;29.73;10.37;;;9.80;99.90;;;;;;5051311;28;20479;-61
2022/11/25 09:31:01;;;;;;;46.60;13.17;;;;;;;;;;5054017;28;20479;-61
2022/11/25 09:33:28;;;;;;;34.37;9.90;;;10.00;99.90;;;;;;5052636;28;20476;-60
2022/11/25 09:36:00;;;;;;;42.27;12.77;;;10.00;99.90;;;;;;5046880;28;20476;-61
2022/11/25 09:38:26;;;;;;;38.43;12.47;;;10.10;99.90;;;;;;5050447;28;20741;-61
2022/11/25 09:41:00;;;;;;;43.87;12.10;;;10.10;99.90;;;;;;5052837;28;20495;-61
2022/11/25 09:46:44;;;;;;;36.23;10.53;;;10.30;99.90;;;;;;5035707;28;20490;-61
2022/11/25 09:49:28;;;;;;;27.27;10.00;;;10.30;99.90;;;;;;5047325;28;21067;-61
2022/11/25 09:52:11;;;;;;;48.03;9.87;;;10.40;99.90;;;;;;5049500;28;20499;-61
2022/11/25 09:54:41;;;;;;;28.80;9.53;;;10.40;99.90;;;;;;5030559;28;20472;-61
2022/11/25 09:57:18;;;;;;;36.53;8.53;;;;;;;;;;5047427;28;20467;-62
2022/11/25 09:59:48;;;;;;;47.10;14.47;;;;;;;;;;5037267;28;20470;-62
2022/11/25 10:02:20;;;;;;;29.70;9.70;;;;;;;;;;5057388;28;20483;-61
2022/11/25 10:04:53;;;;;;;37.67;12.80;;;10.60;99.90;;;;;;5038535;28;20505;-61
2022/11/25 10:07:27;;;;;;;29.37;9.77;;;8.60;99.90;;;;;;5053339;28;20595;-61
2022/11/25 10:10:01;;;;;;;25.50;8.10;;;10.60;99.90;;;;;;5043811;28;20494;-61
2022/11/25 10:12:35;;;;;;;37.73;9.57;;;10.70;99.90;;;;;;5036080;28;20479;-62
2022/11/25 10:15:09;;;;;;;26.47;9.13;;;10.80;99.90;;;;;;5038358;28;20481;-61
2022/11/25 10:17:42;;;;;;;40.23;11.33;;;10.80;99.90;;;;;;5055968;28;21006;-61
2022/11/25 10:20:13;;;;;;;38.40;9.43;;;;;;;;;;5043453;28;20497;-62
2022/11/25 10:22:43;;;;;;;43.43;12.80;;;11.00;99.90;;;;;;5057517;28;20483;-61
2022/11/25 10:25:15;;;;;;;28.13;9.60;;;10.90;99.90;;;;;;5048148;28;20488;-62
2022/11/25 10:27:46;;;;;;;46.97;11.07;;;11.00;99.90;;;;;;5046900;28;20475;-62
2022/11/25 10:30:17;;;;;;;30.57;9.70;;;11.00;99.90;;;;;;5043289;28;20880;-62
2022/11/25 10:32:50;;;;;;;38.50;10.87;;;10.80;99.90;;;;;;5052989;28;20478;-62
2022/11/25 10:35:28;;;;;;;17.33;6.03;;;10.80;99.90;;;;;;5054867;28;20471;-62
2022/11/25 10:38:00;;;;;;;23.67;7.53;;;10.80;99.90;;;;;;5034496;28;20507;-61
2022/11/25 10:40:26;;;;;;;22.40;7.50;;;10.90;99.90;;;;;;5032381;28;20490;-61
2022/11/25 10:42:53;;;;;;;26.30;10.70;;;11.00;99.90;;;;;;5012053;28;20476;-61
2022/11/25 10:45:28;;;;;;;26.27;7.63;;;11.00;99.90;;;;;;5046624;28;21004;-61
2022/11/25 10:48:07;;;;;;;28.63;9.10;;;;;;;;;;5046433;28;20466;-62
2022/11/25 10:50:47;;;;;;;36.03;9.03;;;11.40;99.90;;;;;;5009991;28;20467;-63
2022/11/25 10:53:17;;;;;;;22.30;7.43;;;;;;;;;;5034337;28;20493;-62
2022/11/25 10:55:59;;;;;;;25.67;9.50;;;11.80;99.90;;;;;;5046543;28;20483;-62
2022/11/25 10:58:28;;;;;;;26.63;8.07;;;;;;;;;;5042067;28;20764;-62
2022/11/25 11:01:02;;;;;;;28.47;9.77;;;;;;;;;;5046855;28;20840;-63
2022/11/25 11:03:29;;;;;;;29.83;7.27;;;;;;;;;;5047120;28;20452;-62
2022/11/25 11:05:56;;;;;;;29.73;11.40;;;11.90;99.90;;;;;;5032118;28;20483;-62
2022/11/25 11:08:25;;;;;;;21.53;6.13;;;;;;;;;;5041729;28;20476;-63
2022/11/25 11:11:16;;;;;;;24.03;10.17;;;12.00;99.90;;;;;;5031421;28;20497;-62
2022/11/25 11:13:44;;;;;;;25.63;5.27;;;11.90;99.90;;;;;;5017028;28;20469;-62
2022/11/25 11:16:30;;;;;;;34.47;7.37;;;11.80;99.90;;;;;;5031208;28;20899;-62
2022/11/25 11:18:57;;;;;;;22.77;7.63;;;11.70;99.90;;;;;;5039347;28;20967;-62
2022/11/25 11:21:29;;;;;;;21.97;6.80;;;11.70;99.90;;;;;;5045984;28;20487;-63
2022/11/25 11:23:58;;;;;;;39.53;12.13;;;11.80;99.90;;;;;;5048779;28;20496;-62
2022/11/25 11:26:27;;;;;;;23.37;5.97;;;11.90;99.90;;;;;;5046913;28;20515;-63
2022/11/25 11:29:04;;;;;;;34.73;13.40;;;12.10;99.90;;;;;;5048357;28;20504;-63
2022/11/25 11:31:34;;;;;;;26.97;7.03;;;12.20;99.90;;;;;;5048452;28;20482;-62
2022/11/25 11:34:06;;;;;;;33.50;9.77;;;;;;;;;;5048863;28;20872;-62
2022/11/25 11:36:38;;;;;;;45.10;10.53;;;;;;;;;;5046363;28;20507;-62
2022/11/25 11:39:24;;;;;;;22.53;5.60;;;13.00;99.90;;;;;;5041071;28;20475;-63
2022/11/25 11:41:58;;;;;;;45.27;12.10;;;13.00;99.90;;;;;;5031414;28;20507;-62
2022/11/25 11:44:31;;;;;;;40.07;7.63;;;12.80;99.90;;;;;;5040473;28;20498;-63
2022/11/25 11:47:13;;;;;;;31.23;10.87;;;12.70;99.90;;;;;;5036744;28;20484;-62
2022/11/25 11:50:19;;;;;;;23.97;7.60;;;12.40;99.90;;;;;;5045262;28;21004;-62
2022/11/25 11:52:55;;;;;;;17.97;7.63;;;12.30;99.90;;;;;;5035192;28;20836;-62
2022/11/25 11:55:46;;;;;;;14.07;7.10;;;12.20;99.90;;;;;;5045860;28;20478;-62
2022/11/25 11:58:24;;;;;;;24.77;7.60;;;12.20;99.90;;;;;;5034487;28;20471;-63
2022/11/25 12:01:01;;;;;;;14.40;6.97;;;12.30;99.90;;;;;;5045797;28;20491;-62
2022/11/25 12:03:33;;;;;;;10.73;6.97;;;12.20;99.90;;;;;;5037587;28;20487;-62
2022/11/25 12:06:03;;;;;;;21.70;10.17;;;12.30;99.90;;;;;;5047478;28;20476;-62
2022/11/25 12:08:39;;;;;;;19.00;5.90;;;12.20;99.90;;;;;;5047403;28;20482;-61
2022/11/25 12:11:13;;;;;;;15.20;7.33;;;12.30;99.90;;;;;;5042292;28;20481;-62
2022/11/25 12:13:45;;;;;;;10.33;4.40;;;12.50;99.90;;;;;;5044102;28;20521;-62
2022/11/25 12:16:17;;;;;;;17.53;8.20;;;12.70;99.90;;;;;;5044648;28;20486;-62
2022/11/25 12:18:50;;;;;;;19.17;5.30;;;13.00;99.90;;;;;;5050422;28;20495;-63
2022/11/25 12:21:38;;;;;;;11.90;5.33;;;13.30;99.90;;;;;;5049177;28;20483;-63
2022/11/25 12:24:14;;;;;;;12.83;5.63;;;13.40;99.90;;;;;;5044094;28;20736;-62
2022/11/25 12:26:49;;;;;;;15.00;6.10;;;13.40;99.90;;;;;;5045384;28;20478;-62
2022/11/25 12:29:25;;;;;;;16.90;5.07;;;13.30;99.90;;;;;;5040121;28;20467;-62
2022/11/25 12:31:57;;;;;;;34.10;11.97;;;13.20;99.90;;;;;;5057919;28;20481;-62
2022/11/25 12:34:31;;;;;;;10.53;4.20;;;13.20;99.90;;;;;;5048097;28;20875;-62
2022/11/25 12:37:07;;;;;;;23.73;10.03;;;13.00;99.90;;;;;;5049355;28;20489;-62
2022/11/25 12:39:39;;;;;;;12.60;5.40;;;12.90;99.90;;;;;;5046684;28;20998;-62
2022/11/25 12:42:14;;;;;;;13.93;5.23;;;12.80;99.90;;;;;;5045041;28;20467;-62
2022/11/25 12:44:49;;;;;;;14.97;6.57;;;12.80;99.90;;;;;;5045834;28;21141;-62
2022/11/25 12:47:16;;;;;;;16.03;8.13;;;12.60;99.90;;;;;;5037851;28;20499;-62
2022/11/25 12:49:45;;;;;;;15.30;7.87;;;12.60;99.90;;;;;;5051400;28;20480;-62
2022/11/25 12:52:29;;;;;;;17.23;5.57;;;12.60;99.90;;;;;;5046295;28;20498;-61
2022/11/25 12:55:17;;;;;;;19.43;9.40;;;12.60;99.90;;;;;;5048565;28;20573;-62
2022/11/25 12:58:27;;;;;;;11.43;5.77;;;12.60;99.90;;;;;;5037335;28;20475;-62
2022/11/25 13:01:25;;;;;;;14.40;6.93;;;12.60;99.90;;;;;;5043995;28;20953;-62
2022/11/25 13:04:27;;;;;;;17.67;8.63;;;12.50;99.90;;;;;;5048369;28;20475;-63
2022/11/25 13:07:27;;;;;;;17.03;9.10;;;12.50;99.90;;;;;;5047103;28;20477;-62
2022/11/25 13:10:16;;;;;;;17.93;8.80;;;12.40;99.90;;;;;;5049942;28;20502;-62
2022/11/25 13:12:53;;;;;;;12.90;8.27;;;12.40;99.90;;;;;;5048238;28;20802;-62
2022/11/25 13:15:26;;;;;;;12.20;6.03;;;12.40;99.90;;;;;;5050366;28;20482;-62